Time,TemperatureF,DewpointF,PressureIn,WindDirection,WindDirectionDegrees,WindSpeedMPH,WindSpeedGustMPH,Humidity,HourlyPrecipIn,Conditions,Clouds,dailyrainin,SoftwareType,DateUTC
2013-01-12 00:04:00,66.6,66.6,29.87,SSE,167,5.0,8.1,100,0.00,CLR,,0.00,WeatherDisplay:10.37,2013-01-12 06:04:00,
2013-01-12 00:09:00,66.4,66.4,29.87,South,178,4.2,8.1,100,0.00,CLR,,0.00,WeatherDisplay:10.37,2013-01-12 06:09:00,
2013-01-12 00:14:00,66.4,66.4,29.87,South,172,5.2,8.1,100,0.00,CLR,,0.00,WeatherDisplay:10.37,2013-01-12 06:14:00,
2013-01-12 00:19:00,66.6,66.6,29.87,South,184,5.3,9.2,100,0.00,CLR,,0.00,WeatherDisplay:10.37,2013-01-12 06:19:00,
2013-01-12 00:24:00,66.5,66.5,29.87,South,185,6.6,9.2,100,0.00,CLR,,0.00,WeatherDisplay:10.37,2013-01-12 06:24:00,
2013-01-12 00:29:00,66.7,66.7,29.87,SSE,155,6.8,9.4,100,0.00,CLR,,0.00,WeatherDisplay:10.37,2013-01-12 06:29:00,
2013-01-12 00:34:00,66.9,66.9,29.86,SSE,151,7.2,11.5,100,0.00,CLR,,0.00,WeatherDisplay:10.37,2013-01-12 06:34:00,
2013-01-12 00:39:00,67.0,67.0,29.86,South,174,7.6,11.3,100,0.00,CLR,,0.00,WeatherDisplay:10.37,2013-01-12 06:39:00,
2013-01-12 00:44:00,66.7,66.7,29.86,SE,136,8.5,10.4,100,0.00,CLR,,0.00,WeatherDisplay:10.37,2013-01-12 06:44:00,
2013-01-12 00:49:00,66.8,66.8,29.86,South,171,6.1,9.4,100,0.00,CLR,,0.00,WeatherDisplay:10.37,2013-01-12 06:49:00,
2013-01-12 00:54:00,66.8,66.8,29.86,SSE,157,7.7,10.5,100,0.00,CLR,,0.00,WeatherDisplay:10.37,2013-01-12 06:54:00,
2013-01-12 00:59:00,66.9,66.9,29.86,SE,143,7.2,11.5,100,0.00,CLR,,0.00,WeatherDisplay:10.37,2013-01-12 06:59:00,
2013-01-12 01:04:00,66.9,66.9,29.86,SSE,168,6.2,9.1,100,0.00,CLR,,0.00,WeatherDisplay:10.37,2013-01-12 07:04:00,
2013-01-12 01:09:00,66.9,66.9,29.86,SSE,160,7.4,9.8,100,0.00,CLR,,0.00,WeatherDisplay:10.37,2013-01-12 07:09:00,
2013-01-12 01:14:00,67.1,67.1,29.86,South,178,7.4,10.4,100,0.00,CLR,,0.00,WeatherDisplay:10.37,2013-01-12 07:14:00,
2013-01-12 01:19:00,67.3,67.3,29.86,SSE,155,8.6,11.5,100,0.00,CLR,,0.00,WeatherDisplay:10.37,2013-01-12 07:19:00,
2013-01-12 01:24:00,67.2,67.2,29.85,SE,140,7.0,10.4,100,0.00,CLR,,0.00,WeatherDisplay:10.37,2013-01-12 07:24:00,
2013-01-12 01:29:00,67.2,67.2,29.85,South,171,7.5,10.4,100,0.00,CLR,,0.00,WeatherDisplay:10.37,2013-01-12 07:29:00,
2013-01-12 01:34:00,67.4,67.4,29.85,ESE,120,9.2,14.3,100,0.00,CLR,,0.00,WeatherDisplay:10.37,2013-01-12 07:34:00,
2013-01-12 01:39:00,67.3,67.3,29.85,SSE,167,7.5,12.7,100,0.00,CLR,,0.00,WeatherDisplay:10.37,2013-01-12 07:39:00,
2013-01-12 01:44:00,67.2,67.2,29.84,SSE,160,8.6,12.9,100,0.00,CLR,,0.00,WeatherDisplay:10.37,2013-01-12 07:44:00,
2013-01-12 01:49:00,67.0,67.0,29.85,SE,145,6.9,10.4,100,0.00,CLR,,0.00,WeatherDisplay:10.37,2013-01-12 07:49:00,
2013-01-12 01:54:00,66.9,66.9,29.85,South,185,7.6,9.7,100,0.00,CLR,,0.00,WeatherDisplay:10.37,2013-01-12 07:54:00,
2013-01-12 01:59:00,66.8,66.8,29.85,South,176,7.7,10.6,100,0.00,CLR,,0.00,WeatherDisplay:10.37,2013-01-12 07:59:00,
2013-01-12 02:04:00,66.7,66.7,29.85,SE,144,7.2,10.6,100,0.00,CLR,,0.00,WeatherDisplay:10.37,2013-01-12 08:04:00,
2013-01-12 02:09:00,66.6,66.6,29.85,SSE,147,6.1,8.1,100,0.00,CLR,,0.00,WeatherDisplay:10.37,2013-01-12 08:09:00,
2013-01-12 02:14:00,66.8,66.8,29.84,SSE,162,5.7,9.2,100,0.00,CLR,,0.00,WeatherDisplay:10.37,2013-01-12 08:14:00,
2013-01-12 02:19:00,67.0,67.0,29.85,South,184,5.8,9.7,100,0.00,CLR,,0.00,WeatherDisplay:10.37,2013-01-12 08:19:00,
2013-01-12 02:24:00,67.0,67.0,29.85,SE,134,5.4,9.5,100,0.00,CLR,,0.00,WeatherDisplay:10.37,2013-01-12 08:24:00,
2013-01-12 02:29:00,67.0,67.0,29.85,SE,140,6.9,10.4,100,0.00,CLR,,0.00,WeatherDisplay:10.37,2013-01-12 08:29:00,
2013-01-12 02:34:00,67.2,67.2,29.85,SE,144,6.6,10.4,100,0.00,CLR,,0.00,WeatherDisplay:10.37,2013-01-12 08:34:00,
2013-01-12 02:39:00,67.5,67.5,29.86,SSE,162,7.6,11.9,100,0.00,CLR,,0.00,WeatherDisplay:10.37,2013-01-12 08:39:00,
2013-01-12 02:44:00,67.9,67.9,29.86,South,172,6.3,10.4,100,0.00,CLR,,0.00,WeatherDisplay:10.37,2013-01-12 08:44:00,
2013-01-12 02:49:00,67.8,67.8,29.86,South,171,6.4,8.6,100,0.00,CLR,,0.00,WeatherDisplay:10.37,2013-01-12 08:49:00,
2013-01-12 02:54:00,67.5,67.5,29.86,South,176,7.8,10.8,100,0.00,CLR,,0.00,WeatherDisplay:10.37,2013-01-12 08:54:00,
2013-01-12 02:59:00,67.4,67.4,29.86,SE,140,7.7,11.5,100,0.00,CLR,,0.00,WeatherDisplay:10.37,2013-01-12 08:59:00,
2013-01-12 03:04:00,67.2,67.2,29.85,SSE,157,7.5,11.7,100,0.00,CLR,,0.00,WeatherDisplay:10.37,2013-01-12 09:04:00,
2013-01-12 03:09:00,67.4,67.4,29.85,SSE,155,10.1,15.4,100,0.00,CLR,,0.00,WeatherDisplay:10.37,2013-01-12 09:09:00,
2013-01-12 03:14:00,67.5,67.5,29.84,SE,124,8.9,15.4,100,0.00,CLR,,0.00,WeatherDisplay:10.37,2013-01-12 09:14:00,
2013-01-12 03:19:00,67.6,67.6,29.84,SE,136,8.9,13.8,100,0.00,CLR,,0.00,WeatherDisplay:10.37,2013-01-12 09:19:00,
2013-01-12 03:24:00,67.5,67.5,29.83,SSE,155,9.1,15.4,100,0.00,CLR,,0.00,WeatherDisplay:10.37,2013-01-12 09:24:00,
2013-01-12 03:29:00,67.4,67.4,29.83,SSE,165,9.2,16.1,100,0.00,CLR,,0.00,WeatherDisplay:10.37,2013-01-12 09:29:00,
2013-01-12 03:34:00,67.3,67.3,29.83,SSE,160,11.1,17.1,100,0.00,CLR,,0.00,WeatherDisplay:10.37,2013-01-12 09:34:00,
2013-01-12 03:39:00,67.4,67.4,29.83,SSE,165,10.5,17.3,100,0.00,CLR,,0.00,WeatherDisplay:10.37,2013-01-12 09:39:00,
2013-01-12 03:44:00,67.5,67.5,29.83,ESE,120,9.3,15.0,100,0.00,CLR,,0.00,WeatherDisplay:10.37,2013-01-12 09:44:00,
2013-01-12 03:50:00,67.4,67.4,29.82,SSE,151,10.7,15.5,100,0.00,CLR,,0.00,WeatherDisplay:10.37,2013-01-12 09:50:00,
2013-01-12 03:55:00,67.2,67.2,29.82,SSE,167,9.0,13.4,100,0.00,CLR,,0.00,WeatherDisplay:10.37,2013-01-12 09:55:00,
2013-01-12 04:00:00,67.1,67.1,29.82,SE,133,9.0,15.0,100,0.00,CLR,,0.00,WeatherDisplay:10.37,2013-01-12 10:00:00,
2013-01-12 04:05:00,67.1,67.1,29.82,SSE,160,8.8,12.9,100,0.00,CLR,,0.00,WeatherDisplay:10.37,2013-01-12 10:05:00,
2013-01-12 04:10:00,67.0,67.0,29.82,South,171,8.6,14.2,100,0.00,CLR,,0.00,WeatherDisplay:10.37,2013-01-12 10:10:00,
2013-01-12 04:15:00,66.8,66.8,29.81,SSE,161,9.2,12.8,100,0.00,CLR,,0.00,WeatherDisplay:10.37,2013-01-12 10:15:00,
2013-01-12 04:20:00,66.8,66.8,29.81,SE,128,9.9,16.1,100,0.00,CLR,,0.00,WeatherDisplay:10.37,2013-01-12 10:20:00,
2013-01-12 04:25:00,66.9,66.9,29.80,ESE,120,9.7,17.3,100,0.00,CLR,,0.00,WeatherDisplay:10.37,2013-01-12 10:25:00,
2013-01-12 04:30:00,67.1,67.1,29.79,SSE,147,9.4,16.1,100,0.00,CLR,,0.00,WeatherDisplay:10.37,2013-01-12 10:30:00,
2013-01-12 04:35:00,67.1,67.1,29.79,East,97,8.3,16.1,100,0.00,CLR,,0.00,WeatherDisplay:10.37,2013-01-12 10:35:00,
2013-01-12 04:40:00,67.1,67.1,29.79,SE,126,9.7,16.6,100,0.00,CLR,,0.00,WeatherDisplay:10.37,2013-01-12 10:40:00,
2013-01-12 04:45:00,67.2,67.2,29.79,ESE,116,9.2,13.8,100,0.00,CLR,,0.00,WeatherDisplay:10.37,2013-01-12 10:45:00,
2013-01-12 04:50:00,67.3,67.3,29.79,SE,127,7.5,13.8,100,0.00,CLR,,0.00,WeatherDisplay:10.37,2013-01-12 10:50:00,
2013-01-12 04:55:00,67.3,67.3,29.79,SSE,162,10.2,15.2,100,0.00,CLR,,0.00,WeatherDisplay:10.37,2013-01-12 10:55:00,
2013-01-12 05:00:00,67.4,67.4,29.79,SE,145,9.1,14.4,100,0.00,CLR,,0.00,WeatherDisplay:10.37,2013-01-12 11:00:00,
2013-01-12 05:05:00,67.3,67.3,29.80,SSE,167,9.8,16.1,100,0.00,CLR,,0.00,WeatherDisplay:10.37,2013-01-12 11:05:00,
2013-01-12 05:10:00,67.1,67.1,29.80,ESE,121,9.1,16.1,100,0.00,CLR,,0.00,WeatherDisplay:10.37,2013-01-12 11:10:00,
2013-01-12 05:15:00,67.0,67.0,29.79,SE,133,8.6,14.1,100,0.00,CLR,,0.00,WeatherDisplay:10.37,2013-01-12 11:15:00,
2013-01-12 05:20:00,67.1,67.1,29.79,South,179,7.7,11.5,100,0.00,CLR,,0.00,WeatherDisplay:10.37,2013-01-12 11:20:00,
2013-01-12 05:25:00,67.1,67.1,29.78,SE,144,9.0,13.8,100,0.00,CLR,,0.00,WeatherDisplay:10.37,2013-01-12 11:25:00,
2013-01-12 05:30:00,67.3,67.3,29.78,SE,140,9.1,13.8,100,0.00,CLR,,0.00,WeatherDisplay:10.37,2013-01-12 11:30:00,
2013-01-12 05:35:00,67.4,67.4,29.78,SE,133,8.4,14.6,100,0.00,CLR,,0.00,WeatherDisplay:10.37,2013-01-12 11:35:00,
2013-01-12 05:40:00,67.7,67.7,29.79,SSE,161,10.6,16.6,100,0.00,CLR,,0.00,WeatherDisplay:10.37,2013-01-12 11:40:00,
2013-01-12 05:45:00,67.7,67.7,29.79,SE,128,10.6,16.1,100,0.00,CLR,,0.00,WeatherDisplay:10.37,2013-01-12 11:45:00,
2013-01-12 05:50:00,67.6,67.6,29.79,SSE,160,9.5,14.9,100,0.00,CLR,,0.00,WeatherDisplay:10.37,2013-01-12 11:50:00,
2013-01-12 05:55:00,67.4,67.4,29.80,SSE,162,9.6,16.1,100,0.00,CLR,,0.00,WeatherDisplay:10.37,2013-01-12 11:55:00,
2013-01-12 06:00:00,67.4,67.4,29.81,SE,140,7.3,11.5,100,0.00,CLR,,0.00,WeatherDisplay:10.37,2013-01-12 12:00:00,
2013-01-12 06:05:00,67.3,67.3,29.81,SSE,150,9.5,15.2,100,0.00,CLR,,0.00,WeatherDisplay:10.37,2013-01-12 12:05:00,
2013-01-12 06:11:00,67.4,67.4,29.80,SE,138,10.0,15.0,100,0.00,CLR,,0.00,WeatherDisplay:10.37,2013-01-12 12:11:00,
2013-01-12 06:16:00,67.4,67.4,29.79,SE,138,9.4,15.0,100,0.00,CLR,,0.00,WeatherDisplay:10.37,2013-01-12 12:16:00,
2013-01-12 06:21:00,67.7,67.7,29.79,SSE,152,8.4,13.8,100,0.00,CLR,,0.00,WeatherDisplay:10.37,2013-01-12 12:21:00,
2013-01-12 06:26:00,67.8,67.8,29.79,SE,124,10.5,16.1,100,0.00,CLR,,0.00,WeatherDisplay:10.37,2013-01-12 12:26:00,
2013-01-12 06:31:00,68.0,68.0,29.79,SE,133,10.7,20.7,100,0.00,CLR,,0.00,WeatherDisplay:10.37,2013-01-12 12:31:00,
2013-01-12 06:36:00,68.1,68.1,29.79,SE,140,11.9,17.3,100,0.00,CLR,,0.00,WeatherDisplay:10.37,2013-01-12 12:36:00,
2013-01-12 06:41:00,68.1,68.1,29.80,SE,141,11.5,20.0,100,0.00,CLR,,0.00,WeatherDisplay:10.37,2013-01-12 12:41:00,
2013-01-12 06:46:00,68.1,68.1,29.80,SSE,160,9.3,19.8,100,0.00,CLR,,0.00,WeatherDisplay:10.37,2013-01-12 12:46:00,
2013-01-12 06:51:00,67.9,67.9,29.80,SE,141,10.8,17.7,100,0.00,CLR,,0.00,WeatherDisplay:10.37,2013-01-12 12:51:00,
2013-01-12 06:56:00,67.8,67.8,29.80,SE,134,13.2,19.9,100,0.00,CLR,,0.00,WeatherDisplay:10.37,2013-01-12 12:56:00,
2013-01-12 07:01:00,67.9,67.9,29.80,SE,137,11.5,18.4,100,0.00,CLR,,0.00,WeatherDisplay:10.37,2013-01-12 13:01:00,
2013-01-12 07:06:00,67.8,67.8,29.80,SSE,155,10.7,19.1,100,0.00,CLR,,0.00,WeatherDisplay:10.37,2013-01-12 13:06:00,
2013-01-12 07:11:00,67.9,67.9,29.80,ESE,103,11.5,16.6,100,0.00,CLR,,0.00,WeatherDisplay:10.37,2013-01-12 13:11:00,
2013-01-12 07:16:00,68.0,68.0,29.80,SSE,157,10.7,16.1,100,0.00,CLR,,0.00,WeatherDisplay:10.37,2013-01-12 13:16:00,
2013-01-12 07:21:00,68.0,68.0,29.79,SE,137,8.8,17.3,100,0.00,CLR,,0.00,WeatherDisplay:10.37,2013-01-12 13:21:00,
2013-01-12 07:26:00,68.1,68.1,29.79,SSE,152,9.0,16.7,100,0.00,CLR,,0.00,WeatherDisplay:10.37,2013-01-12 13:26:00,
2013-01-12 07:31:00,68.1,68.1,29.80,SSE,165,9.4,17.3,100,0.00,CLR,,0.00,WeatherDisplay:10.37,2013-01-12 13:31:00,
2013-01-12 07:36:00,68.1,68.1,29.80,SE,131,10.8,18.4,100,0.00,CLR,,0.00,WeatherDisplay:10.37,2013-01-12 13:36:00,
2013-01-12 07:41:00,68.1,68.1,29.80,ESE,114,9.5,18.4,100,0.00,CLR,,0.00,WeatherDisplay:10.37,2013-01-12 13:41:00,
2013-01-12 07:46:00,68.1,68.1,29.80,SE,141,8.6,15.0,100,0.00,CLR,,0.00,WeatherDisplay:10.37,2013-01-12 13:46:00,
2013-01-12 07:51:00,68.1,68.1,29.80,ESE,106,10.4,20.0,100,0.00,CLR,,0.00,WeatherDisplay:10.37,2013-01-12 13:51:00,
2013-01-12 07:56:00,68.3,68.3,29.80,East,92,11.5,18.0,100,0.00,CLR,,0.00,WeatherDisplay:10.37,2013-01-12 13:56:00,
2013-01-12 08:01:00,68.3,68.3,29.80,SE,138,11.8,21.1,100,0.00,CLR,,0.00,WeatherDisplay:10.37,2013-01-12 14:01:00,
2013-01-12 08:06:00,68.3,68.3,29.80,SE,134,12.1,20.8,100,0.00,CLR,,0.00,WeatherDisplay:10.37,2013-01-12 14:06:00,
2013-01-12 08:11:00,68.3,68.3,29.80,SSE,154,11.4,22.1,100,0.00,CLR,,0.00,WeatherDisplay:10.37,2013-01-12 14:11:00,
2013-01-12 08:16:00,68.2,68.2,29.81,SSE,155,11.1,22.1,100,0.00,CLR,,0.00,WeatherDisplay:10.37,2013-01-12 14:16:00,
2013-01-12 08:21:00,68.1,68.1,29.81,SSE,152,9.5,16.1,100,0.00,CLR,,0.00,WeatherDisplay:10.37,2013-01-12 14:21:00,
2013-01-12 08:26:00,68.0,68.0,29.81,SE,138,11.5,18.4,100,0.00,CLR,,0.00,WeatherDisplay:10.37,2013-01-12 14:26:00,
2013-01-12 08:31:00,67.9,67.9,29.81,ESE,123,11.8,20.7,100,0.00,CLR,,0.00,WeatherDisplay:10.37,2013-01-12 14:31:00,
2013-01-12 08:36:00,67.9,67.9,29.82,South,176,11.6,20.7,100,0.00,CLR,,0.00,WeatherDisplay:10.37,2013-01-12 14:36:00,
2013-01-12 08:41:00,67.9,67.9,29.82,SE,140,11.1,20.7,100,0.00,CLR,,0.00,WeatherDisplay:10.37,2013-01-12 14:41:00,
2013-01-12 08:46:00,68.0,68.0,29.82,SSE,165,14.8,19.6,100,0.00,CLR,,0.00,WeatherDisplay:10.37,2013-01-12 14:46:00,
2013-01-12 08:51:00,68.1,68.1,29.81,SE,136,13.4,20.7,100,0.00,CLR,,0.00,WeatherDisplay:10.37,2013-01-12 14:51:00,
2013-01-12 08:56:00,68.2,68.2,29.81,South,169,14.8,21.6,100,0.00,CLR,,0.00,WeatherDisplay:10.37,2013-01-12 14:56:00,
2013-01-12 09:01:00,68.3,68.3,29.81,SSE,162,15.4,25.2,100,0.00,,,0.00,WeatherDisplay:10.37,2013-01-12 15:01:00,
2013-01-12 09:06:00,68.4,68.4,29.81,SSE,157,13.1,23.0,100,0.00,,,0.00,WeatherDisplay:10.37,2013-01-12 15:06:00,
2013-01-12 09:11:00,68.5,68.5,29.82,SSE,154,16.1,27.4,100,0.00,,,0.00,WeatherDisplay:10.37,2013-01-12 15:11:00,
2013-01-12 09:16:00,68.5,68.5,29.82,SE,138,15.2,24.2,100,0.00,CLR,,0.00,WeatherDisplay:10.37,2013-01-12 15:16:00,
2013-01-12 09:21:00,68.4,68.4,29.81,SE,143,13.5,25.3,100,0.00,CLR,,0.00,WeatherDisplay:10.37,2013-01-12 15:21:00,
2013-01-12 09:26:00,68.5,68.5,29.82,ESE,112,14.1,24.9,100,0.00,CLR,,0.00,WeatherDisplay:10.37,2013-01-12 15:26:00,
2013-01-12 09:31:00,68.6,68.6,29.82,SSE,165,14.8,24.9,100,0.00,CLR,,0.00,WeatherDisplay:10.37,2013-01-12 15:31:00,
2013-01-12 09:36:00,68.6,68.6,29.82,South,178,14.9,21.9,100,0.00,CLR,,0.00,WeatherDisplay:10.37,2013-01-12 15:36:00,
2013-01-12 09:41:00,68.6,68.6,29.82,SSE,155,14.7,25.9,100,0.00,CLR,,0.00,WeatherDisplay:10.37,2013-01-12 15:41:00,
2013-01-12 09:46:00,68.8,68.8,29.81,SE,131,15.3,25.9,100,0.00,CLR,,0.00,WeatherDisplay:10.37,2013-01-12 15:46:00,
2013-01-12 09:51:00,68.8,68.8,29.81,SSE,162,15.1,24.6,100,0.00,,,0.00,WeatherDisplay:10.37,2013-01-12 15:51:00,
2013-01-12 09:56:00,68.9,68.9,29.81,SSE,164,18.0,24.2,100,0.00,,,0.00,WeatherDisplay:10.37,2013-01-12 15:56:00,
2013-01-12 10:01:00,69.0,69.0,29.81,SSE,154,16.6,29.9,100,0.00,,,0.00,WeatherDisplay:10.37,2013-01-12 16:01:00,
2013-01-12 10:06:00,68.9,68.9,29.81,SSE,155,17.7,29.9,100,0.00,,,0.00,WeatherDisplay:10.37,2013-01-12 16:06:00,
2013-01-12 10:11:00,68.9,68.9,29.81,SE,145,16.8,28.0,100,0.00,,,0.00,WeatherDisplay:10.37,2013-01-12 16:11:00,
2013-01-12 10:16:00,68.8,68.8,29.81,South,174,18.2,29.7,100,0.00,,,0.00,WeatherDisplay:10.37,2013-01-12 16:16:00,
2013-01-12 10:21:00,69.0,69.0,29.81,SSE,152,15.9,26.5,100,0.00,,,0.00,WeatherDisplay:10.37,2013-01-12 16:21:00,
2013-01-12 10:26:00,69.2,69.2,29.81,SSE,152,18.1,27.8,100,0.00,,,0.00,WeatherDisplay:10.37,2013-01-12 16:26:00,
2013-01-12 10:31:00,69.4,69.4,29.81,SSE,157,16.9,25.7,100,0.00,,,0.00,WeatherDisplay:10.37,2013-01-12 16:31:00,
2013-01-12 10:36:00,69.6,69.6,29.80,South,172,17.9,27.6,100,0.00,,,0.00,WeatherDisplay:10.37,2013-01-12 16:36:00,
2013-01-12 10:41:00,69.5,69.5,29.80,SSE,155,18.9,28.0,100,0.00,,,0.00,WeatherDisplay:10.37,2013-01-12 16:41:00,
2013-01-12 10:46:00,69.3,69.3,29.80,ESE,119,16.3,25.3,100,0.00,,,0.00,WeatherDisplay:10.37,2013-01-12 16:46:00,
2013-01-12 10:51:00,69.3,69.3,29.80,SSE,168,17.7,26.5,100,0.00,,,0.00,WeatherDisplay:10.37,2013-01-12 16:51:00,
2013-01-12 10:56:00,69.5,69.5,29.80,SE,145,16.3,24.9,100,0.00,,,0.00,WeatherDisplay:10.37,2013-01-12 16:56:00,
2013-01-12 11:01:00,69.4,69.4,29.80,SSE,162,14.5,23.0,100,0.00,,,0.00,WeatherDisplay:10.37,2013-01-12 17:01:00,
2013-01-12 11:06:00,69.4,69.4,29.80,SSE,148,14.7,24.0,100,0.00,,,0.00,WeatherDisplay:10.37,2013-01-12 17:06:00,
2013-01-12 11:11:00,69.3,69.3,29.80,SSE,165,14.2,22.2,100,0.00,,,0.00,WeatherDisplay:10.37,2013-01-12 17:11:00,
2013-01-12 11:16:00,69.2,69.2,29.80,South,176,16.4,25.9,100,0.00,,,0.00,WeatherDisplay:10.37,2013-01-12 17:16:00,
2013-01-12 11:21:00,69.2,69.2,29.81,South,169,14.6,22.8,100,0.00,CLR,,0.00,WeatherDisplay:10.37,2013-01-12 17:21:00,
2013-01-12 11:26:00,69.2,69.2,29.80,SSE,151,15.8,25.4,100,0.00,CLR,,0.00,WeatherDisplay:10.37,2013-01-12 17:26:00,
2013-01-12 11:31:00,69.2,69.2,29.79,South,184,16.0,23.0,100,0.00,CLR,,0.00,WeatherDisplay:10.37,2013-01-12 17:31:00,
2013-01-12 11:36:00,69.5,69.5,29.78,South,175,15.3,25.9,100,0.00,,,0.00,WeatherDisplay:10.37,2013-01-12 17:36:00,
2013-01-12 11:41:00,69.5,69.5,29.77,South,186,17.1,25.9,100,0.00,,,0.00,WeatherDisplay:10.37,2013-01-12 17:41:00,
2013-01-12 11:46:00,69.4,69.4,29.78,South,169,15.8,25.3,100,0.00,,,0.00,WeatherDisplay:10.37,2013-01-12 17:46:00,
2013-01-12 11:51:00,69.4,69.4,29.78,SSE,158,15.7,24.4,100,0.00,,,0.00,WeatherDisplay:10.37,2013-01-12 17:51:00,
2013-01-12 11:56:00,69.2,69.2,29.78,SSE,161,13.4,22.0,100,0.00,,,0.00,WeatherDisplay:10.37,2013-01-12 17:56:00,
2013-01-12 12:01:00,69.2,69.2,29.78,South,182,15.9,24.8,100,0.00,,,0.00,WeatherDisplay:10.37,2013-01-12 18:01:00,
2013-01-12 12:06:00,69.2,69.2,29.77,SSE,148,14.8,20.7,100,0.00,CLR,,0.00,WeatherDisplay:10.37,2013-01-12 18:06:00,
2013-01-12 12:11:00,69.4,69.4,29.77,SSE,154,17.1,24.4,100,0.00,CLR,,0.00,WeatherDisplay:10.37,2013-01-12 18:11:00,
2013-01-12 12:16:00,69.5,69.5,29.77,SSE,158,16.4,21.9,100,0.00,,,0.00,WeatherDisplay:10.37,2013-01-12 18:16:00,
2013-01-12 12:21:00,69.4,69.4,29.76,SSE,148,14.6,22.3,100,0.00,,,0.00,WeatherDisplay:10.37,2013-01-12 18:21:00,
2013-01-12 12:26:00,69.6,69.6,29.76,South,178,16.6,25.3,100,0.00,,,0.00,WeatherDisplay:10.37,2013-01-12 18:26:00,
2013-01-12 12:31:00,69.7,69.7,29.75,SSE,158,14.9,25.3,100,0.00,,,0.00,WeatherDisplay:10.37,2013-01-12 18:31:00,
2013-01-12 12:36:00,69.8,69.8,29.75,South,185,16.2,28.4,100,0.00,,,0.00,WeatherDisplay:10.37,2013-01-12 18:36:00,
2013-01-12 12:41:00,70.0,70.0,29.75,SE,134,19.6,28.8,100,0.00,,,0.00,WeatherDisplay:10.37,2013-01-12 18:41:00,
2013-01-12 12:47:00,70.3,70.3,29.75,South,184,17.2,29.0,100,0.00,,,0.00,WeatherDisplay:10.37,2013-01-12 18:47:00,
2013-01-12 12:52:00,70.3,70.3,29.74,SSE,155,19.4,29.0,100,0.00,,,0.00,WeatherDisplay:10.37,2013-01-12 18:52:00,
2013-01-12 12:57:00,70.3,70.3,29.73,SSE,162,16.3,29.9,100,0.00,,,0.00,WeatherDisplay:10.37,2013-01-12 18:57:00,
2013-01-12 13:02:00,70.1,70.1,29.74,SSE,167,18.0,32.5,100,0.00,,,0.00,WeatherDisplay:10.37,2013-01-12 19:02:00,
2013-01-12 13:07:00,70.1,70.1,29.73,SSE,168,17.9,26.5,100,0.00,,,0.00,WeatherDisplay:10.37,2013-01-12 19:07:00,
2013-01-12 13:12:00,70.1,70.1,29.73,South,178,17.7,33.1,100,0.00,,,0.00,WeatherDisplay:10.37,2013-01-12 19:12:00,
2013-01-12 13:17:00,70.0,70.0,29.73,SSW,192,19.7,30.4,100,0.00,,,0.00,WeatherDisplay:10.37,2013-01-12 19:17:00,
2013-01-12 13:22:00,69.9,69.9,29.73,SE,145,17.5,31.1,100,0.00,,,0.00,WeatherDisplay:10.37,2013-01-12 19:22:00,
2013-01-12 13:27:00,69.8,69.8,29.73,SSE,162,17.5,27.6,100,0.00,,,0.00,WeatherDisplay:10.37,2013-01-12 19:27:00,
2013-01-12 13:32:00,69.7,69.7,29.73,SSE,158,15.5,24.2,100,0.00,,,0.00,WeatherDisplay:10.37,2013-01-12 19:32:00,
2013-01-12 13:37:00,69.6,69.6,29.73,SSE,151,16.7,24.2,100,0.00,,,0.00,WeatherDisplay:10.37,2013-01-12 19:37:00,
2013-01-12 13:42:00,69.6,69.6,29.73,South,181,15.9,24.2,100,0.00,CLR,,0.00,WeatherDisplay:10.37,2013-01-12 19:42:00,
2013-01-12 13:47:00,69.7,69.7,29.73,SE,130,16.7,25.3,100,0.00,,,0.00,WeatherDisplay:10.37,2013-01-12 19:47:00,
2013-01-12 13:52:00,69.6,69.6,29.72,SSE,154,17.3,27.6,100,0.00,,,0.00,WeatherDisplay:10.37,2013-01-12 19:52:00,
2013-01-12 13:57:00,69.7,69.7,29.72,ESE,110,16.8,27.6,100,0.00,,,0.00,WeatherDisplay:10.37,2013-01-12 19:57:00,
2013-01-12 14:02:00,69.9,69.9,29.73,SSE,164,19.5,29.5,100,0.00,,,0.00,WeatherDisplay:10.37,2013-01-12 20:02:00,
2013-01-12 14:07:00,70.0,70.0,29.72,SSE,165,19.4,30.3,100,0.00,,,0.00,WeatherDisplay:10.37,2013-01-12 20:07:00,
2013-01-12 14:12:00,70.1,70.1,29.72,SSE,154,16.0,26.5,100,0.00,,,0.00,WeatherDisplay:10.37,2013-01-12 20:12:00,
2013-01-12 14:17:00,70.1,70.1,29.71,South,172,16.3,29.9,100,0.00,,,0.00,WeatherDisplay:10.37,2013-01-12 20:17:00,
2013-01-12 14:22:00,70.0,70.0,29.71,SE,134,15.9,25.3,100,0.00,,,0.00,WeatherDisplay:10.37,2013-01-12 20:22:00,
2013-01-12 14:27:00,69.9,69.9,29.70,SSE,151,17.2,24.5,100,0.00,,,0.00,WeatherDisplay:10.37,2013-01-12 20:27:00,
2013-01-12 14:32:00,69.9,69.9,29.70,SE,145,16.9,28.8,100,0.00,,,0.00,WeatherDisplay:10.37,2013-01-12 20:32:00,
2013-01-12 14:37:00,69.7,69.7,29.70,South,172,16.9,27.3,100,0.00,,,0.00,WeatherDisplay:10.37,2013-01-12 20:37:00,
2013-01-12 14:42:00,69.6,69.6,29.70,SSE,152,14.1,26.9,100,0.00,,,0.00,WeatherDisplay:10.37,2013-01-12 20:42:00,
2013-01-12 14:47:00,69.6,69.6,29.70,SE,138,17.0,26.7,100,0.00,,,0.00,WeatherDisplay:10.37,2013-01-12 20:47:00,
2013-01-12 14:52:00,69.5,69.5,29.69,SE,141,14.6,23.0,100,0.00,,,0.00,WeatherDisplay:10.37,2013-01-12 20:52:00,
2013-01-12 14:57:00,69.5,69.5,29.69,SSE,165,14.7,26.2,100,0.00,,,0.00,WeatherDisplay:10.37,2013-01-12 20:57:00,
2013-01-12 15:02:00,69.4,69.4,29.69,SSE,150,15.7,25.6,100,0.00,,,0.00,WeatherDisplay:10.37,2013-01-12 21:02:00,
2013-01-12 15:07:00,69.3,69.3,29.69,SSE,164,15.2,22.1,100,0.00,,,0.00,WeatherDisplay:10.37,2013-01-12 21:07:00,
2013-01-12 15:12:00,69.3,69.3,29.69,South,175,14.0,21.6,100,0.00,,,0.00,WeatherDisplay:10.37,2013-01-12 21:12:00,
2013-01-12 15:17:00,69.4,69.4,29.69,South,176,12.0,23.2,100,0.00,CLR,,0.00,WeatherDisplay:10.37,2013-01-12 21:17:00,
2013-01-12 15:22:00,69.5,69.5,29.71,SSE,164,13.5,22.1,100,0.00,CLR,,0.00,WeatherDisplay:10.37,2013-01-12 21:22:00,
2013-01-12 15:27:00,69.4,69.4,29.71,SSW,195,10.2,17.3,100,0.00,CLR,,0.00,WeatherDisplay:10.37,2013-01-12 21:27:00,
2013-01-12 15:32:00,69.5,69.5,29.70,SE,131,16.6,27.0,100,0.00,CLR,,0.00,WeatherDisplay:10.37,2013-01-12 21:32:00,
2013-01-12 15:37:00,69.5,69.5,29.69,SSE,151,14.6,23.0,100,0.00,,,0.00,WeatherDisplay:10.37,2013-01-12 21:37:00,
2013-01-12 15:42:00,69.5,69.5,29.70,SE,145,16.7,21.9,100,0.00,,,0.00,WeatherDisplay:10.37,2013-01-12 21:42:00,
2013-01-12 15:47:00,69.4,69.4,29.70,SE,140,16.3,27.6,100,0.00,,,0.00,WeatherDisplay:10.37,2013-01-12 21:47:00,
2013-01-12 15:52:00,69.4,69.4,29.69,SSE,162,16.9,26.0,100,0.00,,,0.00,WeatherDisplay:10.37,2013-01-12 21:52:00,
2013-01-12 15:57:00,69.3,69.3,29.69,SSE,167,20.7,31.0,100,0.00,,,0.00,WeatherDisplay:10.37,2013-01-12 21:57:00,
2013-01-12 16:02:00,69.3,69.3,29.68,SSE,154,20.9,32.2,100,0.00,,,0.00,WeatherDisplay:10.37,2013-01-12 22:02:00,
2013-01-12 16:08:00,69.4,69.4,29.69,SSE,154,18.5,35.7,100,0.00,,,0.00,WeatherDisplay:10.37,2013-01-12 22:08:00,
2013-01-12 16:13:00,69.4,69.4,29.69,SSE,162,20.9,33.4,100,0.00,,,0.00,WeatherDisplay:10.37,2013-01-12 22:13:00,
2013-01-12 16:18:00,69.5,69.5,29.70,South,176,15.3,24.2,100,0.00,CLR,,0.00,WeatherDisplay:10.37,2013-01-12 22:18:00,
2013-01-12 16:23:00,69.2,69.2,29.70,SSE,147,14.1,20.7,100,0.00,,,0.00,WeatherDisplay:10.37,2013-01-12 22:23:00,
2013-01-12 16:28:00,69.1,69.1,29.69,SSE,162,15.3,24.2,100,0.00,,,0.00,WeatherDisplay:10.37,2013-01-12 22:28:00,
2013-01-12 16:33:00,69.2,69.2,29.69,SSE,158,17.1,27.9,100,0.00,,,0.00,WeatherDisplay:10.37,2013-01-12 22:33:00,
2013-01-12 16:38:00,69.3,69.3,29.69,SSE,154,15.2,27.6,100,0.00,CLR,,0.00,WeatherDisplay:10.37,2013-01-12 22:38:00,
2013-01-12 16:43:00,69.2,69.2,29.69,SE,141,14.7,25.9,100,0.00,,,0.00,WeatherDisplay:10.37,2013-01-12 22:43:00,
2013-01-12 16:48:00,69.0,69.0,29.69,South,171,16.9,28.0,100,0.00,,,0.00,WeatherDisplay:10.37,2013-01-12 22:48:00,
2013-01-12 16:53:00,69.0,69.0,29.69,SSE,162,14.4,23.0,100,0.00,,,0.00,WeatherDisplay:10.37,2013-01-12 22:53:00,
2013-01-12 16:58:00,69.2,69.2,29.70,SE,145,11.5,24.3,100,0.00,CLR,,0.00,WeatherDisplay:10.37,2013-01-12 22:58:00,
2013-01-12 17:03:00,69.0,69.0,29.70,SE,144,14.0,24.3,100,0.00,CLR,,0.00,WeatherDisplay:10.37,2013-01-12 23:03:00,
2013-01-12 17:08:00,68.9,68.9,29.70,ESE,117,14.9,25.3,100,0.00,,,0.00,WeatherDisplay:10.37,2013-01-12 23:08:00,
2013-01-12 17:13:00,68.9,68.9,29.70,South,185,11.9,21.9,100,0.00,,,0.00,WeatherDisplay:10.37,2013-01-12 23:13:00,
2013-01-12 17:18:00,68.8,68.8,29.71,South,172,13.0,23.2,100,0.00,,,0.00,WeatherDisplay:10.37,2013-01-12 23:18:00,
2013-01-12 17:23:00,68.6,68.6,29.71,SSE,165,14.0,22.1,100,0.00,CLR,,0.00,WeatherDisplay:10.37,2013-01-12 23:23:00,
2013-01-12 17:28:00,68.7,68.7,29.71,SSW,206,12.5,22.1,100,0.00,CLR,,0.00,WeatherDisplay:10.37,2013-01-12 23:28:00,
2013-01-12 17:33:00,68.5,68.5,29.72,South,174,12.6,18.2,100,0.00,CLR,,0.00,WeatherDisplay:10.37,2013-01-12 23:33:00,
2013-01-12 17:38:00,68.4,68.4,29.72,South,181,11.1,18.9,100,0.00,CLR,,0.00,WeatherDisplay:10.37,2013-01-12 23:38:00,
2013-01-12 17:39:00,68.4,68.4,29.72,South,191,10.6,16.8,100,0.00,CLR,,0.00,WeatherDisplay:10.37,2013-01-12 23:39:00,
2013-01-12 17:43:00,68.4,68.4,29.72,South,191,10.6,16.8,100,0.00,CLR,,0.00,WeatherDisplay:10.37,2013-01-12 23:43:00,
2013-01-12 17:48:00,68.4,68.4,29.72,South,191,10.6,16.8,100,0.00,CLR,,0.00,WeatherDisplay:10.37,2013-01-12 23:48:00,
2013-01-12 17:53:00,68.6,68.6,29.70,South,181,16.1,19.0,100,0.00,CLR,,0.00,WeatherDisplay:10.37,2013-01-12 23:53:00,
2013-01-12 17:58:00,68.7,68.7,29.69,SSE,160,15.8,25.3,100,0.00,,,0.00,WeatherDisplay:10.37,2013-01-12 23:58:00,
2013-01-12 18:03:00,68.8,68.8,29.67,South,171,17.6,25.6,100,0.00,,,0.00,WeatherDisplay:10.37,2013-01-13 00:03:00,
2013-01-12 18:08:00,68.9,68.9,29.66,South,169,19.4,33.4,100,0.00,,,0.00,WeatherDisplay:10.37,2013-01-13 00:08:00,
2013-01-12 18:13:00,69.1,69.1,29.67,South,174,18.6,31.1,100,0.00,,,0.00,WeatherDisplay:10.37,2013-01-13 00:13:00,
2013-01-12 18:18:00,69.1,69.1,29.70,SSW,196,13.6,20.8,100,0.00,,,0.00,WeatherDisplay:10.37,2013-01-13 00:18:00,
2013-01-12 18:23:00,69.3,69.3,29.71,SSW,210,12.2,23.6,100,0.00,,,0.00,WeatherDisplay:10.37,2013-01-13 00:23:00,
2013-01-12 18:28:00,69.0,69.0,29.71,South,189,11.8,23.0,100,0.00,CLR,,0.00,WeatherDisplay:10.37,2013-01-13 00:28:00,
2013-01-12 18:33:00,68.7,68.7,29.71,South,186,10.6,20.3,100,0.00,CLR,,0.00,WeatherDisplay:10.37,2013-01-13 00:33:00,
2013-01-12 18:38:00,68.5,68.5,29.71,SSW,193,12.4,19.6,100,0.00,CLR,,0.00,WeatherDisplay:10.37,2013-01-13 00:38:00,
2013-01-12 18:43:00,68.5,68.5,29.70,South,181,13.5,18.6,100,0.00,CLR,,0.00,WeatherDisplay:10.37,2013-01-13 00:43:00,
2013-01-12 18:48:00,68.5,68.5,29.70,SSW,199,9.7,18.6,100,0.00,CLR,,0.00,WeatherDisplay:10.37,2013-01-13 00:48:00,
2013-01-12 18:53:00,68.7,68.7,29.69,South,188,16.6,26.3,100,0.00,,,0.00,WeatherDisplay:10.37,2013-01-13 00:53:00,
2013-01-12 18:58:00,68.7,68.7,29.67,ESE,113,16.2,26.7,100,0.00,,,0.00,WeatherDisplay:10.37,2013-01-13 00:58:00,
2013-01-12 19:03:00,68.6,68.6,29.67,SSE,155,15.1,24.0,100,0.00,,,0.00,WeatherDisplay:10.37,2013-01-13 01:03:00,
2013-01-12 19:09:00,68.5,68.5,29.68,SSE,148,13.6,25.3,100,0.00,CLR,,0.00,WeatherDisplay:10.37,2013-01-13 01:09:00,
2013-01-12 19:14:00,68.8,68.8,29.69,South,191,15.0,25.3,100,0.00,CLR,,0.00,WeatherDisplay:10.37,2013-01-13 01:14:00,
2013-01-12 19:19:00,68.5,68.5,29.70,SSW,206,10.5,18.4,100,0.00,CLR,,0.00,WeatherDisplay:10.37,2013-01-13 01:19:00,
2013-01-12 19:24:00,67.9,67.9,29.70,SSE,167,9.5,15.9,100,0.00,CLR,,0.00,WeatherDisplay:10.37,2013-01-13 01:24:00,
2013-01-12 19:29:00,67.7,67.7,29.71,South,185,10.1,17.3,100,0.00,CLR,,0.00,WeatherDisplay:10.37,2013-01-13 01:29:00,
2013-01-12 19:34:00,67.4,67.4,29.71,South,182,10.2,17.3,100,0.00,CLR,,0.00,WeatherDisplay:10.37,2013-01-13 01:34:00,
2013-01-12 19:39:00,67.3,67.3,29.71,SSW,195,9.7,17.3,100,0.00,CLR,,0.00,WeatherDisplay:10.37,2013-01-13 01:39:00,
2013-01-12 19:44:00,67.4,67.4,29.71,South,191,8.9,16.5,100,0.00,CLR,,0.00,WeatherDisplay:10.37,2013-01-13 01:44:00,
2013-01-12 19:49:00,67.9,67.9,29.70,SSE,151,12.4,16.7,100,0.00,CLR,,0.00,WeatherDisplay:10.37,2013-01-13 01:49:00,
2013-01-12 19:54:00,68.5,68.5,29.69,SSE,162,13.4,20.9,100,0.00,CLR,,0.00,WeatherDisplay:10.37,2013-01-13 01:54:00,
2013-01-12 19:59:00,68.9,68.9,29.70,SSE,151,11.1,18.4,100,0.00,CLR,,0.00,WeatherDisplay:10.37,2013-01-13 01:59:00,
2013-01-12 20:04:00,69.0,69.0,29.69,SE,144,11.8,18.4,100,0.00,CLR,,0.00,WeatherDisplay:10.37,2013-01-13 02:04:00,
2013-01-12 20:09:00,68.8,68.8,29.70,South,178,10.5,20.0,100,0.00,CLR,,0.00,WeatherDisplay:10.37,2013-01-13 02:09:00,
2013-01-12 20:14:00,68.6,68.6,29.70,SSW,205,8.4,15.0,100,0.00,CLR,,0.00,WeatherDisplay:10.37,2013-01-13 02:14:00,
2013-01-12 20:19:00,68.5,68.5,29.71,South,181,10.0,15.6,100,0.00,CLR,,0.00,WeatherDisplay:10.37,2013-01-13 02:19:00,
2013-01-12 20:24:00,68.4,68.4,29.72,South,182,12.8,18.4,100,0.00,CLR,,0.00,WeatherDisplay:10.37,2013-01-13 02:24:00,
2013-01-12 20:29:00,68.3,68.3,29.71,South,191,12.2,21.3,100,0.00,CLR,,0.00,WeatherDisplay:10.37,2013-01-13 02:29:00,
2013-01-12 20:34:00,68.3,68.3,29.70,South,176,10.7,22.1,100,0.00,CLR,,0.00,WeatherDisplay:10.37,2013-01-13 02:34:00,
2013-01-12 20:39:00,68.3,68.3,29.70,South,191,10.8,20.7,100,0.00,CLR,,0.00,WeatherDisplay:10.37,2013-01-13 02:39:00,
2013-01-12 20:44:00,68.5,68.5,29.71,SSE,167,13.4,20.7,100,0.00,CLR,,0.00,WeatherDisplay:10.37,2013-01-13 02:44:00,
2013-01-12 20:49:00,68.9,68.9,29.71,South,172,14.2,21.9,100,0.00,CLR,,0.00,WeatherDisplay:10.37,2013-01-13 02:49:00,
2013-01-12 20:54:00,68.9,68.9,29.70,South,169,10.8,19.6,100,0.00,CLR,,0.00,WeatherDisplay:10.37,2013-01-13 02:54:00,
2013-01-12 20:59:00,68.7,68.7,29.70,SSE,168,12.1,20.7,100,0.00,CLR,,0.00,WeatherDisplay:10.37,2013-01-13 02:59:00,
2013-01-12 21:04:00,68.5,68.5,29.70,South,169,11.2,19.6,100,0.00,CLR,,0.00,WeatherDisplay:10.37,2013-01-13 03:04:00,
2013-01-12 21:09:00,68.4,68.4,29.70,South,171,10.9,17.3,100,0.00,CLR,,0.00,WeatherDisplay:10.37,2013-01-13 03:09:00,
2013-01-12 21:14:00,68.3,68.3,29.70,South,185,7.6,15.1,100,0.00,CLR,,0.00,WeatherDisplay:10.37,2013-01-13 03:14:00,
2013-01-12 21:19:00,68.1,68.1,29.71,SE,145,6.6,9.2,100,0.00,CLR,,0.00,WeatherDisplay:10.37,2013-01-13 03:19:00,
2013-01-12 21:24:00,67.9,67.9,29.70,SSE,150,9.6,13.8,100,0.00,CLR,,0.00,WeatherDisplay:10.37,2013-01-13 03:24:00,
2013-01-12 21:29:00,67.7,67.7,29.71,SSE,168,10.2,15.0,100,0.00,CLR,,0.00,WeatherDisplay:10.37,2013-01-13 03:29:00,
2013-01-12 21:34:00,67.7,67.7,29.71,SSE,151,9.5,13.8,100,0.00,CLR,,0.00,WeatherDisplay:10.37,2013-01-13 03:34:00,
2013-01-12 21:39:00,67.4,67.4,29.71,SSE,157,8.9,16.1,100,0.00,CLR,,0.00,WeatherDisplay:10.37,2013-01-13 03:39:00,
2013-01-12 21:44:00,67.5,67.5,29.72,South,182,7.3,11.5,100,0.00,CLR,,0.00,WeatherDisplay:10.37,2013-01-13 03:44:00,
2013-01-12 21:49:00,67.6,67.6,29.71,South,182,8.8,12.7,100,0.00,CLR,,0.00,WeatherDisplay:10.37,2013-01-13 03:49:00,
2013-01-12 21:54:00,67.7,67.7,29.72,South,181,8.5,15.6,100,0.00,CLR,,0.00,WeatherDisplay:10.37,2013-01-13 03:54:00,
2013-01-12 21:59:00,67.8,67.8,29.73,South,174,7.4,10.4,100,0.00,CLR,,0.00,WeatherDisplay:10.37,2013-01-13 03:59:00,
2013-01-12 22:04:00,67.9,67.9,29.72,South,174,7.4,11.5,100,0.00,CLR,,0.00,WeatherDisplay:10.37,2013-01-13 04:04:00,
2013-01-12 22:09:00,67.7,67.7,29.72,SSE,161,8.2,12.7,100,0.00,CLR,,0.00,WeatherDisplay:10.37,2013-01-13 04:09:00,
2013-01-12 22:14:00,67.5,67.5,29.72,SSW,195,8.2,13.8,100,0.00,CLR,,0.00,WeatherDisplay:10.37,2013-01-13 04:14:00,
2013-01-12 22:19:00,67.5,67.5,29.71,SSW,213,7.0,13.8,100,0.00,CLR,,0.00,WeatherDisplay:10.37,2013-01-13 04:19:00,
2013-01-12 22:24:00,67.5,67.5,29.71,South,172,7.1,12.7,100,0.00,CLR,,0.00,WeatherDisplay:10.37,2013-01-13 04:24:00,
2013-01-12 22:29:00,67.4,67.4,29.71,SSW,192,9.2,12.7,100,0.00,CLR,,0.00,WeatherDisplay:10.37,2013-01-13 04:29:00,
2013-01-12 22:34:00,67.7,67.7,29.71,South,174,8.4,15.0,100,0.00,CLR,,0.00,WeatherDisplay:10.37,2013-01-13 04:34:00,
2013-01-12 22:39:00,67.8,67.8,29.71,SSW,206,7.9,13.8,100,0.00,CLR,,0.00,WeatherDisplay:10.37,2013-01-13 04:39:00,
2013-01-12 22:44:00,67.8,67.8,29.71,South,181,8.7,15.0,100,0.00,CLR,,0.00,WeatherDisplay:10.37,2013-01-13 04:44:00,
2013-01-12 22:49:00,67.7,67.7,29.72,SSW,212,7.8,12.7,100,0.00,CLR,,0.00,WeatherDisplay:10.37,2013-01-13 04:49:00,
2013-01-12 22:54:00,67.7,67.7,29.73,South,191,6.8,10.4,100,0.00,CLR,,0.00,WeatherDisplay:10.37,2013-01-13 04:54:00,
2013-01-12 22:59:00,67.7,67.7,29.72,South,172,8.8,12.7,100,0.00,CLR,,0.00,WeatherDisplay:10.37,2013-01-13 04:59:00,
2013-01-12 23:00:00,67.7,67.7,29.72,SSW,192,9.3,12.7,100,0.00,CLR,,0.00,WeatherDisplay:10.37,2013-01-13 05:00:00,
2013-01-12 23:01:00,67.8,67.8,29.72,South,189,8.0,12.7,100,0.00,CLR,,0.00,WeatherDisplay:10.37,2013-01-13 05:01:00,
2013-01-12 23:03:00,67.9,67.9,29.72,South,184,8.3,12.7,100,0.00,CLR,,0.00,WeatherDisplay:10.37,2013-01-13 05:03:00,
2013-01-12 23:08:00,68.1,68.1,29.72,South,182,8.3,13.8,100,0.00,CLR,,0.00,WeatherDisplay:10.37,2013-01-13 05:08:00,
2013-01-12 23:14:00,68.0,68.0,29.72,SW,217,9.2,9.8,100,0.00,CLR,,0.00,WeatherDisplay:10.37,2013-01-13 05:14:00,
2013-01-12 23:19:00,67.9,67.9,29.73,SW,223,6.7,11.5,100,0.00,CLR,,0.00,WeatherDisplay:10.37,2013-01-13 05:19:00,
2013-01-12 23:24:00,67.7,67.7,29.73,SSW,192,6.4,11.6,100,0.00,CLR,,0.00,WeatherDisplay:10.37,2013-01-13 05:24:00,
2013-01-12 23:29:00,67.7,67.7,29.73,South,185,10.2,12.7,100,0.00,CLR,,0.00,WeatherDisplay:10.37,2013-01-13 05:29:00,
2013-01-12 23:34:00,67.6,67.6,29.72,SSW,199,7.1,11.9,100,0.00,CLR,,0.00,WeatherDisplay:10.37,2013-01-13 05:34:00,
2013-01-12 23:39:00,67.5,67.5,29.72,SSW,213,7.2,11.5,100,0.00,CLR,,0.00,WeatherDisplay:10.37,2013-01-13 05:39:00,
2013-01-12 23:44:00,67.4,67.4,29.72,South,188,5.6,10.4,100,0.00,CLR,,0.00,WeatherDisplay:10.37,2013-01-13 05:44:00,
2013-01-12 23:49:00,67.2,67.2,29.72,South,179,6.8,10.4,100,0.00,CLR,,0.00,WeatherDisplay:10.37,2013-01-13 05:49:00,
2013-01-12 23:54:00,67.2,67.2,29.72,South,188,6.7,9.5,100,0.00,CLR,,0.00,WeatherDisplay:10.37,2013-01-13 05:54:00,
2013-01-12 23:59:00,67.3,67.3,29.72,SSW,192,5.6,10.4,100,0.00,CLR,,0.00,WeatherDisplay:10.37,2013-01-13 05:59:00,